sensor_id;sensor_type;location;lat;lon;timestamp;temperature;humidity
48328;DHT22;34136;51.022;7.082;2023-04-06T00:00:50;2.20;1.00
48328;DHT22;34136;51.022;7.082;2023-04-06T00:03:37;2.10;1.00
48328;DHT22;34136;51.022;7.082;2023-04-06T00:06:23;2.10;1.00
48328;DHT22;34136;51.022;7.082;2023-04-06T00:09:09;2.00;1.00
48328;DHT22;34136;51.022;7.082;2023-04-06T00:11:56;2.00;1.00
48328;DHT22;34136;51.022;7.082;2023-04-06T00:14:42;1.90;1.00
48328;DHT22;34136;51.022;7.082;2023-04-06T00:17:28;1.80;1.00
48328;DHT22;34136;51.022;7.082;2023-04-06T00:20:15;1.70;1.00
48328;DHT22;34136;51.022;7.082;2023-04-06T00:23:02;1.60;1.00
48328;DHT22;34136;51.022;7.082;2023-04-06T00:25:48;1.70;1.00
48328;DHT22;34136;51.022;7.082;2023-04-06T00:28:35;1.70;1.00
48328;DHT22;34136;51.022;7.082;2023-04-06T00:31:21;1.70;1.00
48328;DHT22;34136;51.022;7.082;2023-04-06T00:34:08;1.70;1.00
48328;DHT22;34136;51.022;7.082;2023-04-06T00:36:54;1.70;1.00
48328;DHT22;34136;51.022;7.082;2023-04-06T00:39:40;1.60;1.00
48328;DHT22;34136;51.022;7.082;2023-04-06T00:42:26;1.70;1.00
48328;DHT22;34136;51.022;7.082;2023-04-06T00:45:13;1.70;1.00
48328;DHT22;34136;51.022;7.082;2023-04-06T00:48:00;1.70;1.00
48328;DHT22;34136;51.022;7.082;2023-04-06T00:50:46;1.60;1.00
48328;DHT22;34136;51.022;7.082;2023-04-06T00:53:33;1.60;1.00
48328;DHT22;34136;51.022;7.082;2023-04-06T00:56:21;1.60;1.00
48328;DHT22;34136;51.022;7.082;2023-04-06T00:59:11;1.60;1.00
48328;DHT22;34136;51.022;7.082;2023-04-06T01:01:59;1.40;1.00
48328;DHT22;34136;51.022;7.082;2023-04-06T01:04:54;1.40;1.00
48328;DHT22;34136;51.022;7.082;2023-04-06T01:07:50;1.30;1.00
48328;DHT22;34136;51.022;7.082;2023-04-06T01:10:41;1.40;1.00
48328;DHT22;34136;51.022;7.082;2023-04-06T01:13:35;1.40;1.00
48328;DHT22;34136;51.022;7.082;2023-04-06T01:16:24;1.50;1.00
48328;DHT22;34136;51.022;7.082;2023-04-06T01:19:29;1.50;1.00
48328;DHT22;34136;51.022;7.082;2023-04-06T01:22:17;1.40;1.00
48328;DHT22;34136;51.022;7.082;2023-04-06T01:25:10;1.30;1.00
48328;DHT22;34136;51.022;7.082;2023-04-06T01:28:20;1.30;1.00
48328;DHT22;34136;51.022;7.082;2023-04-06T01:31:24;1.30;1.00
48328;DHT22;34136;51.022;7.082;2023-04-06T01:34:12;1.30;1.00
48328;DHT22;34136;51.022;7.082;2023-04-06T01:36:58;1.30;1.00
48328;DHT22;34136;51.022;7.082;2023-04-06T01:39:50;1.30;1.00
48328;DHT22;34136;51.022;7.082;2023-04-06T01:42:45;1.30;1.00
48328;DHT22;34136;51.022;7.082;2023-04-06T01:45:36;1.30;1.00
48328;DHT22;34136;51.022;7.082;2023-04-06T01:48:33;1.20;1.00
48328;DHT22;34136;51.022;7.082;2023-04-06T01:51:23;1.20;1.00
48328;DHT22;34136;51.022;7.082;2023-04-06T01:54:14;1.20;1.00
48328;DHT22;34136;51.022;7.082;2023-04-06T01:57:12;1.10;1.00
48328;DHT22;34136;51.022;7.082;2023-04-06T02:00:22;1.10;1.00
48328;DHT22;34136;51.022;7.082;2023-04-06T02:03:12;1.00;1.00
48328;DHT22;34136;51.022;7.082;2023-04-06T02:05:59;0.90;1.00
48328;DHT22;34136;51.022;7.082;2023-04-06T02:08:53;0.90;1.00
48328;DHT22;34136;51.022;7.082;2023-04-06T02:11:40;0.90;1.00
48328;DHT22;34136;51.022;7.082;2023-04-06T02:14:26;1.00;1.00
48328;DHT22;34136;51.022;7.082;2023-04-06T02:17:16;1.00;1.00
48328;DHT22;34136;51.022;7.082;2023-04-06T02:20:03;0.90;1.00
48328;DHT22;34136;51.022;7.082;2023-04-06T02:22:49;0.70;1.00
48328;DHT22;34136;51.022;7.082;2023-04-06T02:25:36;0.80;1.00
48328;DHT22;34136;51.022;7.082;2023-04-06T02:28:22;0.90;1.00
48328;DHT22;34136;51.022;7.082;2023-04-06T02:31:08;0.90;1.00
48328;DHT22;34136;51.022;7.082;2023-04-06T02:33:55;0.90;1.00
48328;DHT22;34136;51.022;7.082;2023-04-06T02:36:45;0.80;1.00
48328;DHT22;34136;51.022;7.082;2023-04-06T02:39:33;0.80;1.00
48328;DHT22;34136;51.022;7.082;2023-04-06T02:42:21;0.70;1.00
48328;DHT22;34136;51.022;7.082;2023-04-06T02:45:09;0.70;1.00
48328;DHT22;34136;51.022;7.082;2023-04-06T02:48:01;0.60;1.00
48328;DHT22;34136;51.022;7.082;2023-04-06T02:50:48;0.70;1.00
48328;DHT22;34136;51.022;7.082;2023-04-06T02:53:35;0.50;1.00
48328;DHT22;34136;51.022;7.082;2023-04-06T02:56:21;0.50;1.00
48328;DHT22;34136;51.022;7.082;2023-04-06T02:59:10;0.60;1.00
48328;DHT22;34136;51.022;7.082;2023-04-06T03:01:56;0.60;1.00
48328;DHT22;34136;51.022;7.082;2023-04-06T03:04:44;0.50;1.00
48328;DHT22;34136;51.022;7.082;2023-04-06T03:07:40;0.60;1.00
48328;DHT22;34136;51.022;7.082;2023-04-06T03:10:31;0.60;1.00
48328;DHT22;34136;51.022;7.082;2023-04-06T03:13:17;0.60;1.00
48328;DHT22;34136;51.022;7.082;2023-04-06T03:16:10;0.50;1.00
48328;DHT22;34136;51.022;7.082;2023-04-06T03:18:57;0.50;1.00
48328;DHT22;34136;51.022;7.082;2023-04-06T03:21:43;0.60;1.00
48328;DHT22;34136;51.022;7.082;2023-04-06T03:24:30;0.50;1.00
48328;DHT22;34136;51.022;7.082;2023-04-06T03:27:16;0.60;1.00
48328;DHT22;34136;51.022;7.082;2023-04-06T03:30:05;0.60;1.00
48328;DHT22;34136;51.022;7.082;2023-04-06T03:32:54;0.50;1.00
48328;DHT22;34136;51.022;7.082;2023-04-06T03:35:43;0.50;1.00
48328;DHT22;34136;51.022;7.082;2023-04-06T03:38:29;0.60;1.00
48328;DHT22;34136;51.022;7.082;2023-04-06T03:41:16;0.50;1.00
48328;DHT22;34136;51.022;7.082;2023-04-06T03:44:09;0.40;1.00
48328;DHT22;34136;51.022;7.082;2023-04-06T03:46:56;0.40;1.00
48328;DHT22;34136;51.022;7.082;2023-04-06T03:49:44;0.30;1.00
48328;DHT22;34136;51.022;7.082;2023-04-06T03:52:32;0.30;1.00
48328;DHT22;34136;51.022;7.082;2023-04-06T03:55:19;0.30;1.00
48328;DHT22;34136;51.022;7.082;2023-04-06T03:58:05;0.30;1.00
48328;DHT22;34136;51.022;7.082;2023-04-06T04:00:51;0.30;1.00
48328;DHT22;34136;51.022;7.082;2023-04-06T04:03:38;0.30;1.00
48328;DHT22;34136;51.022;7.082;2023-04-06T04:06:24;0.30;1.00
48328;DHT22;34136;51.022;7.082;2023-04-06T04:09:10;0.30;1.00
48328;DHT22;34136;51.022;7.082;2023-04-06T04:11:56;0.30;1.00
48328;DHT22;34136;51.022;7.082;2023-04-06T04:14:43;0.30;1.00
48328;DHT22;34136;51.022;7.082;2023-04-06T04:17:29;0.20;1.00
48328;DHT22;34136;51.022;7.082;2023-04-06T04:20:16;0.30;1.00
48328;DHT22;34136;51.022;7.082;2023-04-06T04:23:02;0.20;1.00
48328;DHT22;34136;51.022;7.082;2023-04-06T04:25:52;0.30;1.00
48328;DHT22;34136;51.022;7.082;2023-04-06T04:28:38;0.10;1.00
48328;DHT22;34136;51.022;7.082;2023-04-06T04:31:24;0.00;1.00
48328;DHT22;34136;51.022;7.082;2023-04-06T04:34:15;-0.10;1.00
48328;DHT22;34136;51.022;7.082;2023-04-06T04:37:02;0.00;1.00
48328;DHT22;34136;51.022;7.082;2023-04-06T04:40:09;-0.10;1.00
48328;DHT22;34136;51.022;7.082;2023-04-06T04:43:09;-0.10;1.00
48328;DHT22;34136;51.022;7.082;2023-04-06T04:45:55;-0.10;1.00
48328;DHT22;34136;51.022;7.082;2023-04-06T04:48:52;-0.10;1.00
48328;DHT22;34136;51.022;7.082;2023-04-06T04:51:38;-0.20;1.00
48328;DHT22;34136;51.022;7.082;2023-04-06T04:54:31;-0.20;1.00
48328;DHT22;34136;51.022;7.082;2023-04-06T04:57:18;-0.20;1.00
48328;DHT22;34136;51.022;7.082;2023-04-06T05:00:05;-0.10;1.00
48328;DHT22;34136;51.022;7.082;2023-04-06T05:02:54;0.00;1.00
48328;DHT22;34136;51.022;7.082;2023-04-06T05:05:45;-0.10;1.00
48328;DHT22;34136;51.022;7.082;2023-04-06T05:08:34;-0.10;1.00
48328;DHT22;34136;51.022;7.082;2023-04-06T05:11:21;-0.20;1.00
48328;DHT22;34136;51.022;7.082;2023-04-06T05:14:14;-0.10;1.00
48328;DHT22;34136;51.022;7.082;2023-04-06T05:17:01;-0.10;1.00
48328;DHT22;34136;51.022;7.082;2023-04-06T05:19:47;0.00;1.00
48328;DHT22;34136;51.022;7.082;2023-04-06T05:22:39;-0.10;1.00
48328;DHT22;34136;51.022;7.082;2023-04-06T05:25:29;0.00;1.00
48328;DHT22;34136;51.022;7.082;2023-04-06T05:28:21;0.00;1.00
48328;DHT22;34136;51.022;7.082;2023-04-06T05:31:08;0.10;1.00
48328;DHT22;34136;51.022;7.082;2023-04-06T05:34:03;0.10;1.00
48328;DHT22;34136;51.022;7.082;2023-04-06T05:36:53;0.10;1.00
48328;DHT22;34136;51.022;7.082;2023-04-06T05:39:43;0.10;1.00
48328;DHT22;34136;51.022;7.082;2023-04-06T05:42:40;0.20;1.00
48328;DHT22;34136;51.022;7.082;2023-04-06T05:45:27;0.20;1.00
48328;DHT22;34136;51.022;7.082;2023-04-06T05:48:15;0.20;1.00
48328;DHT22;34136;51.022;7.082;2023-04-06T05:51:02;0.20;1.00
48328;DHT22;34136;51.022;7.082;2023-04-06T05:53:58;0.30;1.00
48328;DHT22;34136;51.022;7.082;2023-04-06T05:56:46;0.40;1.00
48328;DHT22;34136;51.022;7.082;2023-04-06T05:59:32;0.40;1.00
48328;DHT22;34136;51.022;7.082;2023-04-06T06:02:19;0.50;1.00
48328;DHT22;34136;51.022;7.082;2023-04-06T06:05:08;0.50;1.00
48328;DHT22;34136;51.022;7.082;2023-04-06T06:07:55;0.60;1.00
48328;DHT22;34136;51.022;7.082;2023-04-06T06:10:42;0.60;1.00
48328;DHT22;34136;51.022;7.082;2023-04-06T06:13:31;0.70;1.00
48328;DHT22;34136;51.022;7.082;2023-04-06T06:16:19;0.80;1.00
48328;DHT22;34136;51.022;7.082;2023-04-06T06:19:07;0.90;1.00
48328;DHT22;34136;51.022;7.082;2023-04-06T06:21:54;1.00;1.00
48328;DHT22;34136;51.022;7.082;2023-04-06T06:24:40;1.10;1.00
48328;DHT22;34136;51.022;7.082;2023-04-06T06:27:27;1.20;1.00
48328;DHT22;34136;51.022;7.082;2023-04-06T06:30:15;1.30;1.00
48328;DHT22;34136;51.022;7.082;2023-04-06T06:33:03;1.30;1.00
48328;DHT22;34136;51.022;7.082;2023-04-06T06:35:50;1.50;1.00
48328;DHT22;34136;51.022;7.082;2023-04-06T06:38:37;1.60;1.00
48328;DHT22;34136;51.022;7.082;2023-04-06T06:41:25;1.70;1.00
48328;DHT22;34136;51.022;7.082;2023-04-06T06:44:11;1.90;1.00
48328;DHT22;34136;51.022;7.082;2023-04-06T06:46:58;2.00;1.00
48328;DHT22;34136;51.022;7.082;2023-04-06T06:49:44;2.20;1.00
48328;DHT22;34136;51.022;7.082;2023-04-06T06:52:30;2.60;1.00
48328;DHT22;34136;51.022;7.082;2023-04-06T06:55:17;2.90;1.00
48328;DHT22;34136;51.022;7.082;2023-04-06T06:58:03;3.10;1.00
48328;DHT22;34136;51.022;7.082;2023-04-06T07:00:49;3.40;1.00
48328;DHT22;34136;51.022;7.082;2023-04-06T07:03:36;3.50;1.00
48328;DHT22;34136;51.022;7.082;2023-04-06T07:06:22;3.70;1.00
48328;DHT22;34136;51.022;7.082;2023-04-06T07:09:09;3.90;1.00
48328;DHT22;34136;51.022;7.082;2023-04-06T07:11:55;4.10;1.00
48328;DHT22;34136;51.022;7.082;2023-04-06T07:14:42;4.30;1.00
48328;DHT22;34136;51.022;7.082;2023-04-06T07:17:29;4.50;1.00
48328;DHT22;34136;51.022;7.082;2023-04-06T07:20:15;4.80;1.00
48328;DHT22;34136;51.022;7.082;2023-04-06T07:23:01;5.10;1.00
48328;DHT22;34136;51.022;7.082;2023-04-06T07:25:48;5.30;1.00
48328;DHT22;34136;51.022;7.082;2023-04-06T07:28:35;5.60;1.00
48328;DHT22;34136;51.022;7.082;2023-04-06T07:31:21;6.00;1.00
48328;DHT22;34136;51.022;7.082;2023-04-06T07:34:08;6.30;1.00
48328;DHT22;34136;51.022;7.082;2023-04-06T07:36:55;6.60;1.00
48328;DHT22;34136;51.022;7.082;2023-04-06T07:39:42;6.80;1.00
48328;DHT22;34136;51.022;7.082;2023-04-06T07:42:29;6.90;1.00
48328;DHT22;34136;51.022;7.082;2023-04-06T07:45:15;7.20;1.00
48328;DHT22;34136;51.022;7.082;2023-04-06T07:48:02;7.40;1.00
48328;DHT22;34136;51.022;7.082;2023-04-06T07:50:49;7.60;1.00
48328;DHT22;34136;51.022;7.082;2023-04-06T07:53:36;7.90;1.00
48328;DHT22;34136;51.022;7.082;2023-04-06T07:56:22;8.20;1.00
48328;DHT22;34136;51.022;7.082;2023-04-06T07:59:09;8.50;1.00
48328;DHT22;34136;51.022;7.082;2023-04-06T08:01:55;8.70;1.00
48328;DHT22;34136;51.022;7.082;2023-04-06T08:04:41;8.60;1.00
48328;DHT22;34136;51.022;7.082;2023-04-06T08:07:28;8.70;1.00
48328;DHT22;34136;51.022;7.082;2023-04-06T08:10:14;8.90;1.00
48328;DHT22;34136;51.022;7.082;2023-04-06T08:13:00;9.00;1.00
48328;DHT22;34136;51.022;7.082;2023-04-06T08:15:47;9.20;1.00
48328;DHT22;34136;51.022;7.082;2023-04-06T08:18:33;9.30;1.00
48328;DHT22;34136;51.022;7.082;2023-04-06T08:21:19;9.50;1.00
48328;DHT22;34136;51.022;7.082;2023-04-06T08:24:06;9.50;1.00
48328;DHT22;34136;51.022;7.082;2023-04-06T08:26:53;9.60;1.00
48328;DHT22;34136;51.022;7.082;2023-04-06T08:29:39;9.80;1.00
48328;DHT22;34136;51.022;7.082;2023-04-06T08:32:25;9.80;1.00
48328;DHT22;34136;51.022;7.082;2023-04-06T08:35:12;9.90;1.00
48328;DHT22;34136;51.022;7.082;2023-04-06T08:37:58;10.10;1.00
48328;DHT22;34136;51.022;7.082;2023-04-06T08:40:45;10.30;1.00
48328;DHT22;34136;51.022;7.082;2023-04-06T08:43:32;10.40;1.00
48328;DHT22;34136;51.022;7.082;2023-04-06T08:46:21;10.80;1.00
48328;DHT22;34136;51.022;7.082;2023-04-06T08:49:07;11.10;1.00
48328;DHT22;34136;51.022;7.082;2023-04-06T08:51:55;11.20;1.00
48328;DHT22;34136;51.022;7.082;2023-04-06T08:54:41;11.20;1.00
48328;DHT22;34136;51.022;7.082;2023-04-06T08:57:29;11.20;1.00
48328;DHT22;34136;51.022;7.082;2023-04-06T09:00:16;11.10;1.00
48328;DHT22;34136;51.022;7.082;2023-04-06T09:03:03;11.10;1.00
48328;DHT22;34136;51.022;7.082;2023-04-06T09:05:51;11.20;1.00
48328;DHT22;34136;51.022;7.082;2023-04-06T09:08:39;11.40;1.00
48328;DHT22;34136;51.022;7.082;2023-04-06T09:11:26;11.40;1.00
48328;DHT22;34136;51.022;7.082;2023-04-06T09:14:12;11.50;1.00
48328;DHT22;34136;51.022;7.082;2023-04-06T09:16:59;11.80;1.00
48328;DHT22;34136;51.022;7.082;2023-04-06T09:19:49;12.00;1.00
48328;DHT22;34136;51.022;7.082;2023-04-06T09:22:38;12.30;1.00
48328;DHT22;34136;51.022;7.082;2023-04-06T09:25:25;12.40;1.00
48328;DHT22;34136;51.022;7.082;2023-04-06T09:28:11;12.30;1.00
48328;DHT22;34136;51.022;7.082;2023-04-06T09:30:57;12.40;1.00
48328;DHT22;34136;51.022;7.082;2023-04-06T09:33:45;12.60;1.00
48328;DHT22;34136;51.022;7.082;2023-04-06T09:36:34;12.60;1.00
48328;DHT22;34136;51.022;7.082;2023-04-06T09:39:21;12.60;1.00
48328;DHT22;34136;51.022;7.082;2023-04-06T09:42:08;12.70;1.00
48328;DHT22;34136;51.022;7.082;2023-04-06T09:44:54;12.60;1.00
48328;DHT22;34136;51.022;7.082;2023-04-06T09:47:45;12.90;1.00
48328;DHT22;34136;51.022;7.082;2023-04-06T09:50:32;13.00;1.00
48328;DHT22;34136;51.022;7.082;2023-04-06T09:53:26;13.00;1.00
48328;DHT22;34136;51.022;7.082;2023-04-06T09:56:17;13.10;1.00
48328;DHT22;34136;51.022;7.082;2023-04-06T09:59:13;13.40;1.00
48328;DHT22;34136;51.022;7.082;2023-04-06T10:02:00;13.50;1.00
48328;DHT22;34136;51.022;7.082;2023-04-06T10:04:55;13.80;1.00
48328;DHT22;34136;51.022;7.082;2023-04-06T10:07:47;13.90;1.00
48328;DHT22;34136;51.022;7.082;2023-04-06T10:10:34;14.00;1.00
48328;DHT22;34136;51.022;7.082;2023-04-06T10:13:22;14.10;1.00
48328;DHT22;34136;51.022;7.082;2023-04-06T10:16:10;14.10;1.00
48328;DHT22;34136;51.022;7.082;2023-04-06T10:19:10;14.20;1.00
48328;DHT22;34136;51.022;7.082;2023-04-06T10:22:00;14.40;1.00
48328;DHT22;34136;51.022;7.082;2023-04-06T10:24:48;14.30;1.00
48328;DHT22;34136;51.022;7.082;2023-04-06T10:27:34;14.50;1.00
48328;DHT22;34136;51.022;7.082;2023-04-06T10:30:20;14.60;1.00
48328;DHT22;34136;51.022;7.082;2023-04-06T10:33:18;14.60;1.00
48328;DHT22;34136;51.022;7.082;2023-04-06T10:36:15;14.30;1.00
48328;DHT22;34136;51.022;7.082;2023-04-06T10:39:04;14.30;1.00
48328;DHT22;34136;51.022;7.082;2023-04-06T10:41:50;14.60;1.00
48328;DHT22;34136;51.022;7.082;2023-04-06T10:44:42;14.80;1.00
48328;DHT22;34136;51.022;7.082;2023-04-06T10:47:39;14.90;1.00
48328;DHT22;34136;51.022;7.082;2023-04-06T10:50:25;15.10;1.00
48328;DHT22;34136;51.022;7.082;2023-04-06T10:53:19;15.00;1.00
48328;DHT22;34136;51.022;7.082;2023-04-06T10:56:10;15.10;1.00
48328;DHT22;34136;51.022;7.082;2023-04-06T10:58:57;14.90;1.00
48328;DHT22;34136;51.022;7.082;2023-04-06T11:01:44;15.10;1.00
48328;DHT22;34136;51.022;7.082;2023-04-06T11:04:31;15.10;1.00
48328;DHT22;34136;51.022;7.082;2023-04-06T11:07:23;14.80;1.00
48328;DHT22;34136;51.022;7.082;2023-04-06T11:10:21;14.80;1.00
48328;DHT22;34136;51.022;7.082;2023-04-06T11:13:07;14.90;1.00
48328;DHT22;34136;51.022;7.082;2023-04-06T11:15:54;14.80;1.00
48328;DHT22;34136;51.022;7.082;2023-04-06T11:19:07;14.90;1.00
48328;DHT22;34136;51.022;7.082;2023-04-06T11:21:53;15.20;1.00
48328;DHT22;34136;51.022;7.082;2023-04-06T11:24:40;15.30;1.00
48328;DHT22;34136;51.022;7.082;2023-04-06T11:27:26;15.30;1.00
48328;DHT22;34136;51.022;7.082;2023-04-06T11:30:14;15.20;1.00
48328;DHT22;34136;51.022;7.082;2023-04-06T11:33:01;15.20;1.00
48328;DHT22;34136;51.022;7.082;2023-04-06T11:35:48;15.40;1.00
48328;DHT22;34136;51.022;7.082;2023-04-06T11:38:39;15.50;1.00
48328;DHT22;34136;51.022;7.082;2023-04-06T11:41:25;15.50;1.00
48328;DHT22;34136;51.022;7.082;2023-04-06T11:44:12;15.40;1.00
48328;DHT22;34136;51.022;7.082;2023-04-06T11:46:59;15.30;1.00
48328;DHT22;34136;51.022;7.082;2023-04-06T11:49:46;15.50;1.00
48328;DHT22;34136;51.022;7.082;2023-04-06T11:52:33;15.50;1.00
48328;DHT22;34136;51.022;7.082;2023-04-06T11:55:19;15.60;1.00
48328;DHT22;34136;51.022;7.082;2023-04-06T11:58:06;15.60;1.00
48328;DHT22;34136;51.022;7.082;2023-04-06T12:00:52;15.40;1.00
48328;DHT22;34136;51.022;7.082;2023-04-06T12:03:39;15.00;1.00
48328;DHT22;34136;51.022;7.082;2023-04-06T12:06:25;15.10;1.00
48328;DHT22;34136;51.022;7.082;2023-04-06T12:09:11;15.00;1.00
48328;DHT22;34136;51.022;7.082;2023-04-06T12:11:58;15.00;1.00
48328;DHT22;34136;51.022;7.082;2023-04-06T12:14:44;14.90;1.00
48328;DHT22;34136;51.022;7.082;2023-04-06T12:17:30;14.70;1.00
48328;DHT22;34136;51.022;7.082;2023-04-06T12:20:17;14.80;1.00
48328;DHT22;34136;51.022;7.082;2023-04-06T12:23:04;14.60;1.00
48328;DHT22;34136;51.022;7.082;2023-04-06T12:25:53;14.40;1.00
48328;DHT22;34136;51.022;7.082;2023-04-06T12:28:39;14.40;1.00
48328;DHT22;34136;51.022;7.082;2023-04-06T12:31:26;14.50;1.00
48328;DHT22;34136;51.022;7.082;2023-04-06T12:34:12;14.70;1.00
48328;DHT22;34136;51.022;7.082;2023-04-06T12:36:58;14.80;1.00
48328;DHT22;34136;51.022;7.082;2023-04-06T12:39:44;14.60;1.00
48328;DHT22;34136;51.022;7.082;2023-04-06T12:42:31;14.50;1.00
48328;DHT22;34136;51.022;7.082;2023-04-06T12:45:17;14.50;1.00
48328;DHT22;34136;51.022;7.082;2023-04-06T12:48:04;14.70;1.00
48328;DHT22;34136;51.022;7.082;2023-04-06T12:51:09;14.80;1.00
48328;DHT22;34136;51.022;7.082;2023-04-06T12:53:55;14.90;1.00
48328;DHT22;34136;51.022;7.082;2023-04-06T12:56:41;14.90;1.00
48328;DHT22;34136;51.022;7.082;2023-04-06T12:59:28;15.00;1.00
48328;DHT22;34136;51.022;7.082;2023-04-06T13:02:14;15.00;1.00
48328;DHT22;34136;51.022;7.082;2023-04-06T13:05:01;15.00;1.00
48328;DHT22;34136;51.022;7.082;2023-04-06T13:07:47;14.90;1.00
48328;DHT22;34136;51.022;7.082;2023-04-06T13:10:33;15.00;1.00
48328;DHT22;34136;51.022;7.082;2023-04-06T13:13:23;15.10;1.00
48328;DHT22;34136;51.022;7.082;2023-04-06T13:16:10;15.10;1.00
48328;DHT22;34136;51.022;7.082;2023-04-06T13:18:57;14.80;1.00
48328;DHT22;34136;51.022;7.082;2023-04-06T13:21:43;14.70;1.00
48328;DHT22;34136;51.022;7.082;2023-04-06T13:24:29;14.60;1.00
48328;DHT22;34136;51.022;7.082;2023-04-06T13:27:16;14.80;1.00
48328;DHT22;34136;51.022;7.082;2023-04-06T13:30:03;14.80;1.00
48328;DHT22;34136;51.022;7.082;2023-04-06T13:32:50;14.70;1.00
48328;DHT22;34136;51.022;7.082;2023-04-06T13:35:37;14.70;1.00
48328;DHT22;34136;51.022;7.082;2023-04-06T13:38:23;14.70;1.00
48328;DHT22;34136;51.022;7.082;2023-04-06T13:41:17;14.70;1.00
48328;DHT22;34136;51.022;7.082;2023-04-06T13:44:03;14.70;1.00
48328;DHT22;34136;51.022;7.082;2023-04-06T13:46:49;14.40;1.00
48328;DHT22;34136;51.022;7.082;2023-04-06T13:49:36;14.40;1.00
48328;DHT22;34136;51.022;7.082;2023-04-06T13:52:22;14.40;1.00
48328;DHT22;34136;51.022;7.082;2023-04-06T13:55:09;14.30;1.00
48328;DHT22;34136;51.022;7.082;2023-04-06T13:57:55;14.30;1.00
48328;DHT22;34136;51.022;7.082;2023-04-06T14:00:41;14.20;1.00
48328;DHT22;34136;51.022;7.082;2023-04-06T14:03:28;14.50;1.00
48328;DHT22;34136;51.022;7.082;2023-04-06T14:06:14;14.30;1.00
48328;DHT22;34136;51.022;7.082;2023-04-06T14:09:00;14.30;1.00
48328;DHT22;34136;51.022;7.082;2023-04-06T14:11:46;14.20;1.00
48328;DHT22;34136;51.022;7.082;2023-04-06T14:14:33;14.00;1.00
48328;DHT22;34136;51.022;7.082;2023-04-06T14:17:19;13.70;1.00
48328;DHT22;34136;51.022;7.082;2023-04-06T14:20:07;13.60;1.00
48328;DHT22;34136;51.022;7.082;2023-04-06T14:22:53;13.70;1.00
48328;DHT22;34136;51.022;7.082;2023-04-06T14:25:39;13.60;1.00
48328;DHT22;34136;51.022;7.082;2023-04-06T14:28:26;13.40;1.00
48328;DHT22;34136;51.022;7.082;2023-04-06T14:31:13;13.00;1.00
48328;DHT22;34136;51.022;7.082;2023-04-06T14:34:03;12.90;1.00
48328;DHT22;34136;51.022;7.082;2023-04-06T14:36:50;12.60;1.00
48328;DHT22;34136;51.022;7.082;2023-04-06T14:39:36;12.40;1.00
48328;DHT22;34136;51.022;7.082;2023-04-06T14:42:25;12.50;1.00
48328;DHT22;34136;51.022;7.082;2023-04-06T14:45:15;12.50;1.00
48328;DHT22;34136;51.022;7.082;2023-04-06T14:48:02;12.30;1.00
48328;DHT22;34136;51.022;7.082;2023-04-06T14:50:52;12.30;1.00
48328;DHT22;34136;51.022;7.082;2023-04-06T14:53:39;12.30;1.00
48328;DHT22;34136;51.022;7.082;2023-04-06T14:56:25;12.20;1.00
48328;DHT22;34136;51.022;7.082;2023-04-06T14:59:11;12.10;1.00
48328;DHT22;34136;51.022;7.082;2023-04-06T15:01:57;12.20;1.00
48328;DHT22;34136;51.022;7.082;2023-04-06T15:04:46;12.20;1.00
48328;DHT22;34136;51.022;7.082;2023-04-06T15:07:42;12.10;1.00
48328;DHT22;34136;51.022;7.082;2023-04-06T15:10:31;11.80;1.00
48328;DHT22;34136;51.022;7.082;2023-04-06T15:13:18;11.70;1.00
48328;DHT22;34136;51.022;7.082;2023-04-06T15:16:05;11.80;1.00
48328;DHT22;34136;51.022;7.082;2023-04-06T15:18:51;11.80;1.00
48328;DHT22;34136;51.022;7.082;2023-04-06T15:21:38;11.50;1.00
48328;DHT22;34136;51.022;7.082;2023-04-06T15:24:25;11.40;1.00
48328;DHT22;34136;51.022;7.082;2023-04-06T15:27:11;11.30;1.00
48328;DHT22;34136;51.022;7.082;2023-04-06T15:29:58;11.30;1.00
48328;DHT22;34136;51.022;7.082;2023-04-06T15:33:00;11.40;1.00
48328;DHT22;34136;51.022;7.082;2023-04-06T15:35:46;11.30;1.00
48328;DHT22;34136;51.022;7.082;2023-04-06T15:38:33;11.40;1.00
48328;DHT22;34136;51.022;7.082;2023-04-06T15:41:20;11.20;1.00
48328;DHT22;34136;51.022;7.082;2023-04-06T15:44:06;11.00;1.00
48328;DHT22;34136;51.022;7.082;2023-04-06T15:46:52;10.90;1.00
48328;DHT22;34136;51.022;7.082;2023-04-06T15:49:39;11.00;1.00
48328;DHT22;34136;51.022;7.082;2023-04-06T15:52:25;11.10;1.00
48328;DHT22;34136;51.022;7.082;2023-04-06T15:55:11;11.20;1.00
48328;DHT22;34136;51.022;7.082;2023-04-06T15:57:58;11.10;1.00
48328;DHT22;34136;51.022;7.082;2023-04-06T16:00:44;11.00;1.00
48328;DHT22;34136;51.022;7.082;2023-04-06T16:03:30;11.00;1.00
48328;DHT22;34136;51.022;7.082;2023-04-06T16:06:17;11.10;1.00
48328;DHT22;34136;51.022;7.082;2023-04-06T16:09:03;11.00;1.00
48328;DHT22;34136;51.022;7.082;2023-04-06T16:11:50;10.60;1.00
48328;DHT22;34136;51.022;7.082;2023-04-06T16:14:36;10.60;1.00
48328;DHT22;34136;51.022;7.082;2023-04-06T16:17:23;10.50;1.00
48328;DHT22;34136;51.022;7.082;2023-04-06T16:20:09;10.40;1.00
48328;DHT22;34136;51.022;7.082;2023-04-06T16:22:56;10.50;1.00
48328;DHT22;34136;51.022;7.082;2023-04-06T16:25:42;10.60;1.00
48328;DHT22;34136;51.022;7.082;2023-04-06T16:33:00;10.60;1.00
48328;DHT22;34136;51.022;7.082;2023-04-06T16:36:23;10.40;1.00
48328;DHT22;34136;51.022;7.082;2023-04-06T16:39:10;10.50;1.00
48328;DHT22;34136;51.022;7.082;2023-04-06T16:41:57;10.30;1.00
48328;DHT22;34136;51.022;7.082;2023-04-06T16:44:44;10.20;1.00
48328;DHT22;34136;51.022;7.082;2023-04-06T16:47:30;10.10;1.00
48328;DHT22;34136;51.022;7.082;2023-04-06T16:50:26;10.00;1.00
48328;DHT22;34136;51.022;7.082;2023-04-06T16:53:20;9.90;1.00
48328;DHT22;34136;51.022;7.082;2023-04-06T16:56:07;9.80;1.00
48328;DHT22;34136;51.022;7.082;2023-04-06T16:58:53;9.80;1.00
48328;DHT22;34136;51.022;7.082;2023-04-06T17:01:40;9.80;1.00
48328;DHT22;34136;51.022;7.082;2023-04-06T17:04:27;9.80;1.00
48328;DHT22;34136;51.022;7.082;2023-04-06T17:07:13;9.70;1.00
48328;DHT22;34136;51.022;7.082;2023-04-06T17:09:59;9.70;1.00
48328;DHT22;34136;51.022;7.082;2023-04-06T17:12:46;9.70;1.00
48328;DHT22;34136;51.022;7.082;2023-04-06T17:15:32;9.60;1.00
48328;DHT22;34136;51.022;7.082;2023-04-06T17:18:18;9.80;1.00
48328;DHT22;34136;51.022;7.082;2023-04-06T17:21:08;9.80;1.00
48328;DHT22;34136;51.022;7.082;2023-04-06T17:23:55;9.80;1.00
48328;DHT22;34136;51.022;7.082;2023-04-06T17:26:41;9.80;1.00
48328;DHT22;34136;51.022;7.082;2023-04-06T17:29:28;9.70;1.00
48328;DHT22;34136;51.022;7.082;2023-04-06T17:32:14;9.70;1.00
48328;DHT22;34136;51.022;7.082;2023-04-06T17:35:00;9.60;1.00
48328;DHT22;34136;51.022;7.082;2023-04-06T17:37:46;9.60;1.00
48328;DHT22;34136;51.022;7.082;2023-04-06T17:40:33;9.60;1.00
48328;DHT22;34136;51.022;7.082;2023-04-06T17:43:19;9.60;1.00
48328;DHT22;34136;51.022;7.082;2023-04-06T17:46:06;9.50;1.00
48328;DHT22;34136;51.022;7.082;2023-04-06T17:48:52;9.20;1.00
48328;DHT22;34136;51.022;7.082;2023-04-06T17:51:38;9.20;1.00
48328;DHT22;34136;51.022;7.082;2023-04-06T17:54:25;9.10;1.00
48328;DHT22;34136;51.022;7.082;2023-04-06T17:57:11;9.00;1.00
48328;DHT22;34136;51.022;7.082;2023-04-06T17:59:58;9.00;1.00
48328;DHT22;34136;51.022;7.082;2023-04-06T18:02:45;9.00;1.00
48328;DHT22;34136;51.022;7.082;2023-04-06T18:05:31;8.80;1.00
48328;DHT22;34136;51.022;7.082;2023-04-06T18:08:17;8.80;1.00
48328;DHT22;34136;51.022;7.082;2023-04-06T18:11:04;8.80;1.00
48328;DHT22;34136;51.022;7.082;2023-04-06T18:13:50;8.80;1.00